Time;durP1;ratioP1;P1;durP2;ratioP2;P2;SDS_P1;SDS_P2;PMS_P1;PMS_P2;Temp;Humidity;BMP_temperature;BMP_pressure;BME280_temperature;BME280_humidity;BME280_pressure;Samples;Min_cycle;Max_cycle;Signal;HPM_P1;HPM_P2
2022/07/14 04:02:01;;;;;;;6.23;4.90;;;19.50;99.90;;;;;;5256463;23;20500;-63
2022/07/14 04:04:27;;;;;;;5.40;4.40;;;19.50;99.90;;;;;;4997174;28;20453;-64
2022/07/14 04:06:54;;;;;;;5.60;4.97;;;19.50;99.90;;;;;;4996800;28;20446;-65
2022/07/14 04:09:21;;;;;;;7.87;4.83;;;19.60;99.90;;;;;;4997004;28;20454;-65
2022/07/14 04:11:48;;;;;;;7.03;4.57;;;19.60;99.90;;;;;;4996599;28;21051;-64
2022/07/14 04:14:15;;;;;;;4.90;3.80;;;19.60;99.90;;;;;;4996676;28;20472;-64
2022/07/14 04:16:41;;;;;;;6.20;4.07;;;19.70;99.90;;;;;;4996639;28;20878;-65
2022/07/14 04:19:09;;;;;;;4.60;4.20;;;19.70;99.90;;;;;;4996874;28;20457;-65
2022/07/14 04:21:36;;;;;;;8.83;4.73;;;19.70;99.90;;;;;;4996129;28;20482;-65
2022/07/14 04:24:04;;;;;;;4.40;4.00;;;19.80;99.90;;;;;;4996425;28;20508;-64
2022/07/14 04:26:31;;;;;;;5.30;3.77;;;19.80;99.90;;;;;;4996484;28;20465;-64
2022/07/14 04:28:58;;;;;;;5.13;4.70;;;19.80;99.90;;;;;;4996527;28;20512;-65
2022/07/14 04:31:25;;;;;;;5.83;3.80;;;19.90;99.90;;;;;;4996331;28;20565;-65
2022/07/14 04:33:51;;;;;;;4.37;3.90;;;19.90;99.90;;;;;;4996340;28;20460;-64
2022/07/14 04:36:19;;;;;;;4.60;3.80;;;20.00;99.90;;;;;;4996169;28;20550;-65
2022/07/14 04:38:46;;;;;;;12.90;4.13;;;20.00;99.90;;;;;;4996408;28;20461;-64
2022/07/14 04:41:13;;;;;;;6.33;3.80;;;20.00;99.90;;;;;;4996046;28;20568;-64
2022/07/14 04:43:39;;;;;;;4.53;3.87;;;20.00;99.90;;;;;;4996147;28;20465;-65
2022/07/14 04:46:06;;;;;;;4.83;4.33;;;20.00;99.90;;;;;;4996396;28;20526;-64
2022/07/14 04:52:01;;;;;;;4.83;4.33;;;20.00;99.90;;;;;;4995889;28;20458;-65
2022/07/14 04:54:06;;;;;;;4.50;3.83;;;20.10;99.90;;;;;;4995661;28;20496;-65
2022/07/14 04:56:32;;;;;;;4.30;3.90;;;20.10;99.90;;;;;;4996143;28;20481;-65
2022/07/14 04:58:59;;;;;;;4.73;4.30;;;20.10;99.90;;;;;;4995869;28;20453;-65
2022/07/14 05:01:26;;;;;;;4.63;3.90;;;20.20;99.90;;;;;;4999324;28;20545;-65
2022/07/14 05:03:53;;;;;;;6.23;4.10;;;20.20;99.90;;;;;;5010764;28;20449;-65
2022/07/14 05:06:21;;;;;;;6.67;4.83;;;20.20;99.90;;;;;;4995912;28;20896;-64
2022/07/14 05:08:47;;;;;;;4.67;4.27;;;20.20;99.90;;;;;;4995763;28;20460;-64
2022/07/14 05:11:14;;;;;;;5.10;4.60;;;20.20;99.90;;;;;;4995380;28;20473;-64
2022/07/14 05:13:41;;;;;;;3.77;3.43;;;20.30;99.90;;;;;;4995349;28;20469;-64
2022/07/14 05:16:08;;;;;;;4.00;3.70;;;20.30;99.90;;;;;;4995758;28;20478;-64
2022/07/14 05:18:35;;;;;;;4.43;3.87;;;20.40;99.90;;;;;;4995707;28;20454;-64
2022/07/14 05:21:01;;;;;;;4.63;3.67;;;20.40;99.90;;;;;;4995610;28;20482;-64
2022/07/14 05:23:29;;;;;;;4.40;4.00;;;20.60;99.90;;;;;;4995455;28;20489;-65
2022/07/14 05:25:56;;;;;;;7.37;5.23;;;20.70;99.90;;;;;;4995794;28;20474;-66
2022/07/14 05:28:23;;;;;;;6.80;4.07;;;20.80;99.90;;;;;;4995852;28;20556;-65
2022/07/14 05:30:54;;;;;;;4.83;4.40;;;20.80;99.90;;;;;;4995131;28;20484;-65
2022/07/14 05:33:21;;;;;;;6.27;3.67;;;20.90;99.90;;;;;;4995082;28;20437;-65
2022/07/14 05:35:48;;;;;;;7.13;4.00;;;21.00;99.90;;;;;;4994690;28;20477;-65
2022/07/14 05:38:14;;;;;;;5.40;4.20;;;21.10;99.90;;;;;;4994962;28;20457;-65
2022/07/14 05:40:42;;;;;;;9.13;4.63;;;21.20;99.90;;;;;;4994791;28;20470;-65
2022/07/14 05:43:11;;;;;;;5.30;4.00;;;21.30;99.90;;;;;;4994943;28;20460;-65
2022/07/14 05:45:37;;;;;;;7.63;3.80;;;21.40;99.90;;;;;;4994789;28;20457;-65
2022/07/14 05:48:05;;;;;;;3.70;3.40;;;21.50;99.90;;;;;;4994783;28;20527;-65
2022/07/14 05:50:31;;;;;;;5.20;3.67;;;21.60;99.90;;;;;;4994887;28;20480;-66
2022/07/14 05:52:58;;;;;;;6.67;4.00;;;21.70;99.90;;;;;;4994675;28;20450;-65
2022/07/14 05:55:25;;;;;;;4.90;4.17;;;21.90;99.90;;;;;;4994249;28;21022;-65
2022/07/14 05:57:53;;;;;;;7.50;3.40;;;22.00;99.90;;;;;;4994715;28;20458;-65
2022/07/14 06:00:20;;;;;;;4.70;3.63;;;22.10;99.90;;;;;;4994452;28;20462;-65
2022/07/14 06:02:47;;;;;;;6.10;3.90;;;22.30;99.90;;;;;;4994246;28;20449;-64
2022/07/14 06:05:13;;;;;;;4.50;3.90;;;22.50;99.90;;;;;;4994951;28;20445;-65
2022/07/14 06:07:40;;;;;;;4.27;3.80;;;22.40;99.90;;;;;;4994604;28;20461;-65
2022/07/14 06:10:11;;;;;;;5.60;3.97;;;22.50;99.90;;;;;;4994477;28;20479;-65
2022/07/14 06:12:38;;;;;;;7.47;3.60;;;22.70;99.90;;;;;;4994563;28;20449;-65
2022/07/14 06:15:07;;;;;;;3.97;3.57;;;22.80;99.90;;;;;;4994406;28;20461;-65
2022/07/14 06:17:34;;;;;;;6.07;3.73;;;22.90;99.90;;;;;;4994821;28;20454;-65
2022/07/14 06:20:06;;;;;;;5.77;4.13;;;23.10;99.90;;;;;;4994105;28;20461;-65
2022/07/14 06:22:32;;;;;;;5.10;3.90;;;23.30;99.90;;;;;;4994525;28;20473;-65
2022/07/14 06:24:59;;;;;;;5.97;4.17;;;23.40;99.90;;;;;;4994536;28;20460;-64
2022/07/14 06:27:26;;;;;;;6.13;4.20;;;23.50;99.90;;;;;;4993891;28;21005;-67
2022/07/14 06:29:52;;;;;;;6.70;3.60;;;23.70;99.90;;;;;;4994184;28;20501;-64
2022/07/14 06:32:21;;;;;;;12.97;4.10;;;23.90;99.90;;;;;;4993910;28;20470;-66
2022/07/14 06:34:48;;;;;;;3.80;3.27;;;24.00;99.90;;;;;;4994330;28;20799;-66
2022/07/14 06:37:15;;;;;;;5.77;4.07;;;24.20;99.90;;;;;;4994307;28;20628;-65
2022/07/14 06:39:42;;;;;;;6.47;3.27;;;24.50;99.90;;;;;;4994671;28;20458;-65
2022/07/14 06:42:09;;;;;;;6.57;3.17;;;24.80;99.90;;;;;;4994731;28;20473;-66
2022/07/14 06:44:36;;;;;;;3.77;3.40;;;25.10;99.90;;;;;;4994209;28;20454;-66
2022/07/14 06:47:03;;;;;;;5.47;3.17;;;25.30;99.90;;;;;;4994260;28;20449;-66
2022/07/14 06:49:31;;;;;;;8.43;3.20;;;25.50;99.60;;;;;;4994198;28;20458;-66
2022/07/14 06:51:58;;;;;;;3.73;3.03;;;25.60;98.30;;;;;;4994007;28;20481;-66
2022/07/14 06:54:25;;;;;;;7.07;3.23;;;25.70;98.10;;;;;;4994390;28;20457;-66
2022/07/14 06:56:52;;;;;;;5.03;2.63;;;25.80;97.00;;;;;;4994382;28;20477;-66
2022/07/14 06:59:19;;;;;;;3.57;2.77;;;26.10;95.90;;;;;;4994422;28;20462;-66
2022/07/14 07:01:45;;;;;;;5.87;2.50;;;26.40;95.10;;;;;;4994149;28;20493;-66
2022/07/14 07:04:12;;;;;;;5.23;2.73;;;27.00;94.00;;;;;;4994494;28;20473;-66
2022/07/14 07:06:45;;;;;;;2.70;2.50;;;27.60;91.40;;;;;;4994029;28;20461;-66
2022/07/14 07:09:13;;;;;;;5.10;2.60;;;28.20;89.30;;;;;;4994201;28;20469;-66
2022/07/14 07:11:40;;;;;;;4.57;2.60;;;28.80;85.40;;;;;;4993942;28;20984;-66
2022/07/14 07:14:07;;;;;;;4.40;2.80;;;29.30;82.90;;;;;;4997505;28;20433;-66
2022/07/14 07:16:34;;;;;;;3.43;2.67;;;29.70;79.90;;;;;;4997415;28;21014;-66
2022/07/14 07:19:01;;;;;;;5.97;3.27;;;30.10;78.80;;;;;;4997926;28;20453;-67
2022/07/14 07:21:28;;;;;;;3.33;2.63;;;30.40;75.80;;;;;;4998076;28;20480;-67
2022/07/14 07:23:57;;;;;;;2.77;2.50;;;30.80;73.00;;;;;;4998160;28;20457;-66
2022/07/14 07:26:25;;;;;;;5.37;2.70;;;31.10;72.40;;;;;;4998238;28;20457;-66
2022/07/14 07:28:52;;;;;;;4.23;2.50;;;31.20;70.50;;;;;;5000998;28;20454;-66
2022/07/14 07:31:19;;;;;;;3.50;2.50;;;30.90;69.00;;;;;;5002331;28;20477;-66
2022/07/14 07:33:46;;;;;;;3.23;2.50;;;30.50;69.20;;;;;;5001679;28;20458;-66
2022/07/14 07:36:13;;;;;;;2.53;2.33;;;30.30;70.00;;;;;;5000356;28;20535;-67
2022/07/14 07:38:40;;;;;;;5.60;3.00;;;30.30;70.80;;;;;;4999689;28;20454;-66
2022/07/14 07:41:08;;;;;;;2.30;2.10;;;30.70;69.60;;;;;;4998250;28;20473;-66
2022/07/14 07:43:35;;;;;;;3.33;2.53;;;31.00;68.90;;;;;;4997936;28;20457;-66
2022/07/14 07:46:05;;;;;;;6.80;2.60;;;31.50;66.80;;;;;;4998261;28;20457;-66
2022/07/14 07:48:32;;;;;;;2.70;2.50;;;32.00;66.10;;;;;;4997446;28;20933;-66
2022/07/14 07:50:59;;;;;;;2.87;2.50;;;32.70;64.30;;;;;;4997609;28;20477;-67
2022/07/14 07:53:26;;;;;;;2.73;2.53;;;33.30;63.10;;;;;;4998213;28;20457;-67
2022/07/14 07:55:53;;;;;;;3.10;2.50;;;33.90;60.70;;;;;;4997709;28;20704;-67
2022/07/14 07:58:21;;;;;;;2.87;2.30;;;34.40;59.00;;;;;;4997144;28;20469;-67
2022/07/14 08:00:48;;;;;;;2.47;2.20;;;34.70;57.70;;;;;;4997469;28;20484;-67
2022/07/14 08:03:15;;;;;;;8.33;2.90;;;35.20;57.30;;;;;;4997522;28;20441;-67
2022/07/14 08:05:42;;;;;;;7.83;2.53;;;35.30;57.10;;;;;;4997485;28;20457;-66
2022/07/14 08:08:09;;;;;;;5.17;2.60;;;35.60;56.90;;;;;;4997313;28;20547;-66
2022/07/14 08:10:36;;;;;;;5.33;2.30;;;35.50;56.50;;;;;;4996957;28;20476;-67
2022/07/14 08:13:03;;;;;;;5.40;2.40;;;35.80;56.50;;;;;;4997276;28;20548;-67
2022/07/14 08:15:32;;;;;;;5.23;2.57;;;35.80;55.70;;;;;;5008406;28;20457;-67
2022/07/14 08:17:59;;;;;;;4.00;2.00;;;35.90;55.00;;;;;;5010928;28;20477;-67
2022/07/14 08:20:26;;;;;;;2.40;2.27;;;36.00;54.40;;;;;;4996828;28;20465;-67
2022/07/14 08:22:53;;;;;;;7.47;2.40;;;36.30;53.50;;;;;;4997340;28;20948;-67
2022/07/14 08:25:20;;;;;;;2.50;2.30;;;36.50;52.50;;;;;;4995613;28;20944;-68
2022/07/14 08:27:47;;;;;;;7.37;2.60;;;36.50;52.70;;;;;;4997196;28;20452;-67
2022/07/14 08:30:13;;;;;;;5.67;2.53;;;36.50;51.60;;;;;;4996857;28;20481;-68
2022/07/14 08:32:44;;;;;;;9.17;2.70;;;36.70;51.40;;;;;;4996368;28;20965;-67
2022/07/14 08:35:13;;;;;;;6.43;2.23;;;37.20;50.90;;;;;;4996519;28;20441;-67
2022/07/14 08:37:40;;;;;;;2.83;2.27;;;37.60;50.50;;;;;;4996959;28;20833;-68
2022/07/14 08:40:10;;;;;;;6.03;2.27;;;38.20;50.40;;;;;;4996865;28;20463;-67
2022/07/14 08:42:38;;;;;;;2.40;2.00;;;38.50;48.80;;;;;;4996442;28;20453;-68
2022/07/14 08:45:08;;;;;;;5.30;2.17;;;39.10;48.20;;;;;;4997300;28;20805;-67
2022/07/14 08:47:35;;;;;;;7.30;2.50;;;39.60;47.70;;;;;;4996292;28;20622;-68
2022/07/14 08:50:05;;;;;;;5.10;2.73;;;40.10;46.80;;;;;;4996110;28;20687;-67
2022/07/14 08:52:32;;;;;;;5.53;1.90;;;40.80;45.80;;;;;;4996197;28;20313;-68
2022/07/14 08:55:00;;;;;;;5.07;1.90;;;41.30;44.20;;;;;;4995879;28;20198;-67
2022/07/14 08:57:27;;;;;;;2.47;2.22;;;41.50;43.70;;;;;;4996154;28;20204;-68
2022/07/14 08:59:54;;;;;;;4.85;2.15;;;41.70;41.70;;;;;;4996597;28;20224;-68
2022/07/14 09:02:21;;;;;;;4.07;1.92;;;41.40;42.90;;;;;;4995549;28;20226;-68
2022/07/14 09:04:48;;;;;;;4.30;2.35;;;41.50;42.60;;;;;;4995777;28;20202;-68
2022/07/14 09:07:30;;;;;;;8.23;2.03;;;41.60;42.20;;;;;;4995775;28;20203;-68
2022/07/14 09:10:02;;;;;;;2.72;2.13;;;41.40;41.80;;;;;;4995623;28;20570;-68
2022/07/14 09:12:30;;;;;;;1.90;1.80;;;41.30;41.00;;;;;;4996097;28;20222;-68
2022/07/14 09:17:51;;;;;;;3.78;2.08;;;41.60;40.00;;;;;;4995434;28;20539;-68
2022/07/14 09:20:17;;;;;;;4.90;1.90;;;41.80;40.60;;;;;;4995622;28;20190;-68
2022/07/14 09:22:46;;;;;;;6.07;2.15;;;41.80;38.70;;;;;;4996306;28;20208;-68
2022/07/14 09:25:15;;;;;;;5.97;2.17;;;42.00;38.90;;;;;;4995507;28;20194;-68
2022/07/14 09:27:42;;;;;;;2.35;1.90;;;42.60;38.10;;;;;;4995446;28;20602;-68
2022/07/14 09:30:11;;;;;;;2.35;1.80;;;42.50;35.50;;;;;;4995034;28;20236;-68
2022/07/14 09:32:45;;;;;;;2.55;1.98;;;42.80;34.30;;;;;;4995346;28;20230;-68
2022/07/14 09:35:13;;;;;;;1.83;1.50;;;42.40;33.50;;;;;;4995002;28;20546;-68
2022/07/14 09:37:41;;;;;;;2.08;1.52;;;42.50;33.80;;;;;;4994883;28;20530;-68
2022/07/14 09:40:13;;;;;;;2.13;1.80;;;42.50;33.40;;;;;;4995190;28;20198;-68
2022/07/14 09:42:52;;;;;;;6.82;1.90;;;42.70;34.50;;;;;;4995159;28;20630;-68
2022/07/14 09:45:21;;;;;;;1.42;1.33;;;43.00;32.20;;;;;;4994989;28;20186;-68
2022/07/14 09:48:00;;;;;;;3.20;1.70;;;43.10;32.20;;;;;;4994659;28;20217;-68
2022/07/14 09:50:41;;;;;;;2.47;1.90;;;43.20;32.10;;;;;;4994985;28;20262;-68
2022/07/14 09:53:13;;;;;;;4.50;1.85;;;43.40;31.80;;;;;;4994938;28;20178;-68
2022/07/14 09:55:46;;;;;;;5.88;1.67;;;43.50;30.80;;;;;;4995017;28;20201;-68
2022/07/14 09:58:13;;;;;;;1.50;1.50;;;43.80;32.50;;;;;;4994798;28;20188;-68
2022/07/14 10:00:42;;;;;;;2.53;1.65;;;43.50;30.00;;;;;;4995238;28;20226;-68
2022/07/14 10:03:09;;;;;;;4.82;1.80;;;43.40;31.10;;;;;;4994914;28;20178;-68
2022/07/14 10:05:38;;;;;;;2.35;2.05;;;43.50;30.30;;;;;;4994602;28;20661;-68
2022/07/14 10:08:08;;;;;;;1.27;1.27;;;43.60;31.30;;;;;;4994885;28;20218;-68
2022/07/14 10:10:36;;;;;;;4.13;1.80;;;43.80;29.40;;;;;;4994925;28;20222;-68
2022/07/14 10:13:05;;;;;;;1.73;1.60;;;44.00;29.60;;;;;;4994538;28;20206;-68
2022/07/14 10:15:32;;;;;;;2.78;1.52;;;44.10;28.90;;;;;;4994950;28;20728;-68
2022/07/14 10:18:02;;;;;;;4.25;1.40;;;44.50;29.00;;;;;;4994715;28;20205;-69
2022/07/14 10:20:30;;;;;;;3.15;1.38;;;44.40;29.30;;;;;;4994304;28;20189;-69
2022/07/14 10:22:58;;;;;;;3.38;2.15;;;44.60;29.90;;;;;;4994217;28;20559;-68
2022/07/14 10:25:25;;;;;;;5.57;1.92;;;44.90;28.60;;;;;;4994731;28;20211;-68
2022/07/14 10:27:53;;;;;;;2.65;1.50;;;45.30;29.20;;;;;;4994578;28;20225;-68
2022/07/14 10:30:32;;;;;;;2.53;1.67;;;45.60;31.90;;;;;;4994574;28;20198;-69
2022/07/14 10:33:05;;;;;;;1.77;1.48;;;45.70;29.40;;;;;;4996373;28;20186;-68
2022/07/14 10:35:51;;;;;;;3.75;1.80;;;45.80;28.10;;;;;;4995288;28;20183;-68
2022/07/14 10:38:41;;;;;;;3.20;1.90;;;45.10;27.70;;;;;;4995513;28;20179;-68
2022/07/14 10:41:24;;;;;;;3.85;1.75;;;44.90;28.70;;;;;;4972157;28;20309;-68
2022/07/14 10:44:07;;;;;;;1.92;1.73;;;44.80;29.30;;;;;;4994832;28;20178;-67
2022/07/14 10:46:39;;;;;;;3.33;1.38;;;44.40;29.50;;;;;;4995109;28;20182;-67
2022/07/14 10:49:08;;;;;;;7.47;1.85;;;44.10;30.00;;;;;;4997680;28;20204;-68
2022/07/14 10:51:43;;;;;;;4.95;1.60;;;43.90;30.80;;;;;;4998399;28;20221;-68
2022/07/14 10:54:11;;;;;;;1.88;1.60;;;43.70;30.00;;;;;;4998777;28;20193;-68
2022/07/14 10:56:40;;;;;;;1.70;1.60;;;43.30;31.00;;;;;;4998686;28;20252;-68
2022/07/14 10:59:32;;;;;;;2.58;1.73;;;43.40;30.00;;;;;;4998442;28;20673;-69
2022/07/14 11:02:31;;;;;;;4.68;1.60;;;43.50;30.00;;;;;;4998269;28;20713;-68
2022/07/14 11:05:03;;;;;;;3.88;1.90;;;43.60;31.80;;;;;;4998459;28;20642;-68
2022/07/14 11:07:38;;;;;;;1.77;1.70;;;43.70;30.60;;;;;;4998517;28;20222;-68
2022/07/14 11:10:06;;;;;;;3.35;1.83;;;44.10;30.50;;;;;;4998530;28;20229;-67
2022/07/14 11:12:33;;;;;;;5.30;2.05;;;44.00;29.80;;;;;;4998682;28;20222;-69
2022/07/14 11:15:00;;;;;;;5.60;1.85;;;43.60;29.90;;;;;;4998229;28;20201;-69
2022/07/14 11:17:39;;;;;;;2.53;1.67;;;43.80;32.20;;;;;;4998460;28;20198;-68
2022/07/14 11:20:10;;;;;;;2.50;2.30;;;44.10;31.00;;;;;;4998236;28;20205;-68
2022/07/14 11:22:37;;;;;;;3.38;1.70;;;44.20;31.60;;;;;;4997793;28;20581;-68
2022/07/14 11:25:05;;;;;;;2.58;2.17;;;44.00;30.60;;;;;;4998448;28;20542;-68
2022/07/14 11:27:38;;;;;;;8.93;3.22;;;43.20;30.90;;;;;;4997923;28;20218;-69
2022/07/14 11:30:29;;;;;;;3.95;2.13;;;42.50;33.00;;;;;;5000378;28;20229;-68
2022/07/14 11:33:08;;;;;;;6.60;1.85;;;42.40;32.80;;;;;;4998458;28;20182;-68
2022/07/14 11:38:28;;;;;;;2.25;1.73;;;42.20;33.70;;;;;;4998293;28;20322;-69
2022/07/14 11:40:56;;;;;;;3.33;1.70;;;41.80;33.70;;;;;;5000514;28;20584;-69
2022/07/14 11:43:42;;;;;;;3.72;2.03;;;41.50;33.90;;;;;;4998476;28;20206;-68
2022/07/14 11:46:10;;;;;;;4.07;2.07;;;40.90;34.20;;;;;;5001747;28;20259;-68
2022/07/14 11:48:40;;;;;;;4.83;1.87;;;40.50;34.80;;;;;;5002189;28;20704;-68
2022/07/14 11:51:10;;;;;;;1.60;1.47;;;40.20;36.30;;;;;;5001240;28;20222;-68
2022/07/14 11:53:38;;;;;;;2.87;1.80;;;40.10;36.40;;;;;;4999753;28;20249;-68
2022/07/14 11:56:07;;;;;;;7.13;2.27;;;39.90;35.10;;;;;;4998498;28;20202;-68
2022/07/14 11:58:35;;;;;;;2.10;1.80;;;39.80;36.80;;;;;;4998534;28;20245;-68
2022/07/14 12:01:03;;;;;;;2.13;1.80;;;39.60;35.90;;;;;;4997480;28;20777;-67
2022/07/14 12:03:30;;;;;;;2.00;1.73;;;39.40;36.10;;;;;;4997720;28;20457;-68
2022/07/14 12:06:00;;;;;;;2.80;1.57;;;39.20;36.70;;;;;;5001979;28;20202;-68
2022/07/14 12:08:28;;;;;;;3.00;1.60;;;39.20;37.70;;;;;;5010716;28;20237;-68
2022/07/14 12:11:01;;;;;;;2.00;1.60;;;39.20;37.10;;;;;;5004827;28;20477;-68
2022/07/14 12:13:28;;;;;;;4.43;2.80;;;39.30;35.60;;;;;;4997821;28;20438;-68
2022/07/14 12:16:01;;;;;;;2.13;1.57;;;39.20;37.50;;;;;;4997379;28;20192;-68
2022/07/14 12:18:31;;;;;;;2.40;2.20;;;39.10;35.90;;;;;;4997530;28;20437;-68
2022/07/14 12:21:00;;;;;;;2.00;1.90;;;38.90;36.50;;;;;;4997510;28;20516;-68
2022/07/14 12:23:27;;;;;;;1.93;1.83;;;38.70;36.30;;;;;;4997000;28;20457;-68
2022/07/14 12:25:59;;;;;;;4.80;2.40;;;38.70;35.70;;;;;;4998125;28;20461;-71
2022/07/14 12:28:26;;;;;;;2.80;1.80;;;38.70;38.30;;;;;;4996735;28;20453;-72
2022/07/14 12:30:55;;;;;;;3.60;2.20;;;38.70;36.00;;;;;;4997228;28;20476;-73
2022/07/14 12:33:23;;;;;;;2.03;1.87;;;38.50;36.40;;;;;;4997998;28;20464;-72
2022/07/14 12:35:53;;;;;;;2.17;2.07;;;38.20;35.60;;;;;;4997361;28;20457;-72
2022/07/14 12:38:22;;;;;;;2.10;2.00;;;37.70;36.50;;;;;;4996762;28;20483;-72
2022/07/14 12:40:49;;;;;;;3.60;1.80;;;37.30;36.50;;;;;;4996652;28;20473;-71
2022/07/14 12:43:16;;;;;;;2.83;1.97;;;37.00;37.10;;;;;;4996921;28;20812;-72
2022/07/14 12:46:01;;;;;;;3.30;1.73;;;36.80;37.90;;;;;;4996608;28;20456;-72
2022/07/14 12:48:28;;;;;;;10.47;1.80;;;36.50;37.70;;;;;;4996287;28;21052;-70
2022/07/14 12:50:55;;;;;;;2.23;2.03;;;36.30;38.40;;;;;;4996603;28;20484;-71
2022/07/14 12:53:24;;;;;;;2.37;1.63;;;36.20;38.60;;;;;;4996622;28;20453;-71
2022/07/14 12:55:59;;;;;;;1.80;1.73;;;36.00;39.40;;;;;;4996407;28;20454;-71
2022/07/14 12:58:28;;;;;;;4.97;1.77;;;35.90;38.50;;;;;;4996445;28;20436;-71
2022/07/14 13:00:54;;;;;;;2.77;2.27;;;35.80;39.00;;;;;;4995611;28;20543;-70
2022/07/14 13:03:21;;;;;;;6.50;1.97;;;35.60;38.90;;;;;;4995802;28;20460;-70
2022/07/14 13:05:52;;;;;;;5.83;1.87;;;35.50;39.80;;;;;;4995976;28;20461;-71
2022/07/14 13:08:30;;;;;;;9.10;2.30;;;35.50;40.70;;;;;;4996106;28;20462;-70
2022/07/14 13:10:59;;;;;;;4.83;1.90;;;35.70;40.00;;;;;;4994985;28;20564;-69
2022/07/14 13:13:30;;;;;;;2.57;1.80;;;35.90;40.70;;;;;;4996272;28;20445;-70
2022/07/14 13:16:24;;;;;;;2.10;1.90;;;36.30;40.70;;;;;;4995787;28;20442;-70
2022/07/14 13:19:09;;;;;;;1.93;1.83;;;36.70;40.00;;;;;;4996647;28;20440;-71
2022/07/14 13:21:54;;;;;;;3.33;1.87;;;36.80;38.80;;;;;;4997565;28;20528;-71
2022/07/14 13:24:25;;;;;;;2.73;1.93;;;36.60;38.10;;;;;;4997031;28;20453;-71
2022/07/14 13:26:59;;;;;;;2.37;1.50;;;36.40;39.20;;;;;;4996076;28;20441;-71
2022/07/14 13:29:26;;;;;;;13.40;1.90;;;36.10;38.50;;;;;;4996055;28;20833;-71
2022/07/14 13:31:52;;;;;;;1.93;1.73;;;35.90;38.80;;;;;;4996057;28;20483;-71
2022/07/14 13:34:19;;;;;;;1.93;1.70;;;35.70;38.60;;;;;;4996071;28;20457;-71
2022/07/14 13:36:47;;;;;;;3.20;1.43;;;35.50;39.60;;;;;;4995665;28;20452;-71
2022/07/14 13:39:15;;;;;;;4.30;1.90;;;35.40;39.60;;;;;;4995429;28;21006;-71
2022/07/14 13:41:43;;;;;;;2.30;1.70;;;35.30;40.00;;;;;;4995960;28;20480;-71
2022/07/14 13:44:09;;;;;;;4.93;2.30;;;35.30;39.70;;;;;;4994880;28;20905;-70
2022/07/14 13:46:36;;;;;;;4.17;1.80;;;35.10;40.80;;;;;;4995054;28;20511;-70
2022/07/14 13:49:04;;;;;;;2.67;1.60;;;35.00;39.80;;;;;;4995109;28;20486;-70
2022/07/14 13:54:15;;;;;;;2.23;1.60;;;35.20;40.20;;;;;;4994946;28;20463;-72
2022/07/14 13:56:43;;;;;;;4.20;2.10;;;35.40;41.60;;;;;;4995473;28;20461;-72
2022/07/14 13:59:10;;;;;;;2.30;1.63;;;35.60;40.80;;;;;;4994852;28;20449;-71
2022/07/14 14:01:37;;;;;;;3.30;2.27;;;35.60;39.70;;;;;;4994996;28;20489;-71
2022/07/14 14:04:04;;;;;;;3.10;1.70;;;35.60;41.00;;;;;;4995239;28;20457;-73
2022/07/14 14:06:31;;;;;;;1.63;1.53;;;35.60;39.70;;;;;;4994974;28;20464;-73
2022/07/14 14:08:59;;;;;;;1.80;1.70;;;35.50;40.40;;;;;;4994974;28;20504;-73
2022/07/14 14:11:26;;;;;;;4.87;1.60;;;35.50;41.00;;;;;;4995060;28;20477;-71
2022/07/14 14:13:54;;;;;;;3.60;1.67;;;35.20;39.50;;;;;;4994765;28;20458;-72
2022/07/14 14:16:21;;;;;;;9.33;1.80;;;35.20;41.00;;;;;;4994691;28;20453;-72
2022/07/14 14:18:48;;;;;;;1.90;1.80;;;35.30;40.00;;;;;;4994408;28;20791;-72
2022/07/14 14:21:16;;;;;;;2.40;1.80;;;35.50;42.00;;;;;;4994668;28;20472;-71
2022/07/14 14:23:43;;;;;;;5.27;1.83;;;35.80;40.20;;;;;;4993794;28;20485;-71
2022/07/14 14:26:10;;;;;;;3.83;1.80;;;36.00;41.60;;;;;;4994501;28;20457;-71
2022/07/14 14:28:37;;;;;;;4.70;1.90;;;36.30;42.00;;;;;;4994522;28;20484;-71
2022/07/14 14:31:05;;;;;;;2.70;1.67;;;36.70;40.50;;;;;;4994444;28;20473;-72
2022/07/14 14:33:32;;;;;;;3.80;1.90;;;36.80;38.60;;;;;;4994225;28;20963;-73
2022/07/14 14:35:59;;;;;;;5.17;2.40;;;36.80;40.10;;;;;;4994391;28;20464;-73
2022/07/14 14:38:26;;;;;;;2.20;1.80;;;36.90;39.10;;;;;;4994747;28;20457;-72
2022/07/14 14:40:53;;;;;;;2.10;1.90;;;36.70;38.30;;;;;;4994193;28;20480;-72
2022/07/14 14:43:20;;;;;;;2.37;1.80;;;36.60;39.60;;;;;;4994388;28;20544;-72
2022/07/14 14:45:48;;;;;;;2.73;2.10;;;36.50;39.80;;;;;;4994342;28;20461;-72
2022/07/14 14:48:17;;;;;;;3.37;1.97;;;36.10;39.40;;;;;;4994051;28;21011;-72
2022/07/14 14:50:44;;;;;;;3.50;1.83;;;35.90;40.60;;;;;;4994268;28;20524;-72
2022/07/14 14:53:11;;;;;;;2.37;2.13;;;35.70;41.20;;;;;;4994767;28;20480;-72
2022/07/14 14:55:38;;;;;;;2.03;1.90;;;35.50;42.00;;;;;;4994461;28;20458;-73
2022/07/14 14:58:05;;;;;;;2.87;2.00;;;35.50;42.50;;;;;;4994629;28;20453;-72
2022/07/14 15:00:33;;;;;;;3.70;2.00;;;35.40;43.80;;;;;;4994231;28;20483;-71
2022/07/14 15:03:00;;;;;;;6.33;2.47;;;35.50;43.80;;;;;;4994613;28;20560;-71
2022/07/14 15:05:28;;;;;;;2.73;1.93;;;35.50;43.30;;;;;;4994953;28;20831;-72
2022/07/14 15:07:54;;;;;;;2.50;1.90;;;35.50;44.20;;;;;;4994739;28;20461;-72
2022/07/14 15:10:21;;;;;;;5.93;2.03;;;35.60;44.60;;;;;;4994681;28;20454;-71
2022/07/14 15:12:48;;;;;;;5.40;2.17;;;35.70;43.60;;;;;;4995138;28;20453;-72
2022/07/14 15:15:15;;;;;;;4.10;2.40;;;35.80;44.00;;;;;;4996324;28;20453;-71
2022/07/14 15:17:42;;;;;;;2.30;2.10;;;35.70;43.80;;;;;;4994677;28;20459;-71
2022/07/14 15:20:10;;;;;;;2.50;2.30;;;35.50;44.40;;;;;;4994747;28;20448;-72
2022/07/14 15:22:38;;;;;;;3.73;2.10;;;35.30;44.70;;;;;;4994410;28;20528;-71
2022/07/14 15:25:05;;;;;;;2.17;1.97;;;35.10;45.10;;;;;;4994444;28;20460;-72
2022/07/14 15:27:33;;;;;;;3.50;2.13;;;34.90;44.90;;;;;;4994803;28;20453;-71
2022/07/14 15:30:01;;;;;;;4.43;2.70;;;34.70;46.10;;;;;;4994609;28;20494;-71
2022/07/14 15:32:27;;;;;;;5.17;2.60;;;34.70;46.00;;;;;;4994277;28;20477;-72
2022/07/14 15:34:54;;;;;;;4.70;2.53;;;34.60;46.00;;;;;;4996794;28;20453;-72
2022/07/14 15:37:21;;;;;;;4.70;2.50;;;34.40;46.10;;;;;;4998029;28;20457;-71
2022/07/14 15:42:33;;;;;;;3.97;2.57;;;34.50;46.90;;;;;;4997514;28;20464;-72
2022/07/14 15:45:00;;;;;;;3.50;2.97;;;34.50;47.00;;;;;;4998630;28;20480;-71
2022/07/14 15:47:26;;;;;;;4.60;2.80;;;34.50;47.00;;;;;;5004157;28;20453;-72
2022/07/14 15:49:53;;;;;;;4.63;2.60;;;34.40;47.40;;;;;;5017955;28;20468;-72
2022/07/14 15:52:20;;;;;;;4.57;2.13;;;34.30;48.40;;;;;;5003344;28;20479;-72
2022/07/14 15:54:47;;;;;;;3.83;2.73;;;34.40;47.10;;;;;;4997806;28;20225;-72
2022/07/14 15:57:15;;;;;;;6.40;2.93;;;34.20;47.70;;;;;;4997406;28;20453;-72
2022/07/14 15:59:42;;;;;;;5.30;2.80;;;33.90;48.00;;;;;;4997364;28;20532;-71
2022/07/14 16:02:09;;;;;;;2.73;2.40;;;33.90;49.10;;;;;;4996476;28;20504;-72
2022/07/14 16:04:38;;;;;;;5.67;3.20;;;34.00;49.80;;;;;;4997130;28;20441;-70
2022/07/14 16:07:05;;;;;;;3.37;2.90;;;33.90;49.40;;;;;;4998298;28;20517;-69
2022/07/14 16:09:32;;;;;;;4.00;3.57;;;33.90;49.80;;;;;;4998325;28;20473;-72
2022/07/14 16:11:58;;;;;;;6.40;2.87;;;34.00;50.50;;;;;;4997538;28;20476;-70
2022/07/14 16:14:27;;;;;;;3.83;3.43;;;34.00;50.20;;;;;;4997899;28;20453;-70
2022/07/14 16:16:53;;;;;;;7.03;3.50;;;33.90;50.00;;;;;;4997624;28;20453;-71
2022/07/14 16:19:22;;;;;;;2.97;2.77;;;33.70;49.90;;;;;;4997791;28;20969;-71
2022/07/14 16:21:49;;;;;;;9.20;3.87;;;33.60;50.10;;;;;;4997410;28;20561;-70
2022/07/14 16:24:15;;;;;;;6.23;3.40;;;33.50;51.10;;;;;;4997202;28;20453;-71
2022/07/14 16:26:42;;;;;;;3.17;2.90;;;33.40;50.40;;;;;;4997764;28;20524;-71
2022/07/14 16:29:09;;;;;;;5.23;3.40;;;33.30;50.70;;;;;;4996994;28;20481;-70
2022/07/14 16:31:37;;;;;;;3.60;3.30;;;33.20;51.00;;;;;;4996583;28;20482;-69
2022/07/14 16:34:04;;;;;;;8.37;3.43;;;33.00;51.20;;;;;;4996709;28;20461;-69
2022/07/14 16:36:30;;;;;;;6.10;3.00;;;32.80;51.80;;;;;;4996648;28;20462;-71
2022/07/14 16:38:57;;;;;;;4.67;3.50;;;32.70;52.00;;;;;;4996670;28;20512;-69
2022/07/14 16:41:24;;;;;;;5.27;3.60;;;32.60;52.10;;;;;;4995923;28;20930;-69
2022/07/14 16:43:51;;;;;;;6.17;3.77;;;32.50;52.10;;;;;;4995986;28;20458;-71
2022/07/14 16:46:18;;;;;;;4.20;3.60;;;32.30;52.90;;;;;;4996369;28;20457;-71
2022/07/14 16:48:47;;;;;;;5.10;3.47;;;32.20;53.00;;;;;;5008757;28;20837;-71
2022/07/14 16:51:14;;;;;;;3.30;3.00;;;32.20;53.20;;;;;;4999825;28;20469;-69
2022/07/14 16:53:41;;;;;;;3.87;3.67;;;32.20;53.20;;;;;;4995990;28;20503;-69
2022/07/14 16:56:08;;;;;;;8.57;3.83;;;32.20;53.50;;;;;;4995498;28;20955;-69
2022/07/14 16:58:34;;;;;;;5.30;3.40;;;32.00;54.30;;;;;;4995688;28;20468;-69
2022/07/14 17:01:01;;;;;;;5.80;4.00;;;31.90;54.80;;;;;;4995471;28;20485;-68
2022/07/14 17:03:28;;;;;;;6.53;4.20;;;31.80;55.20;;;;;;4996415;28;20457;-70
2022/07/14 17:08:41;;;;;;;5.07;4.67;;;31.50;55.30;;;;;;4995409;28;20465;-69
2022/07/14 17:11:08;;;;;;;5.50;3.70;;;31.30;55.70;;;;;;4995099;28;20999;-68